• Join FlightAware (Why Join?)
  • Login
  • US Flag 
11:13PM EDT


 

Airport Tracker/Info


-or-


 

Live Flight TrackerFlight Track Log ✈ THY2466 ✈ 15-Jul-2013 ✈ LTBA / IST - LTAF / ADA

Flight Track Log - Related Links

Times and Time Zones

All times are in EDT time to prevent confusion due to time zone crossing. See the THY2466 flight status page for this flight to view local times or setup timezone preferences in your user account.

Time Position Orientation Groundspeed Altitude Reporting Facility
EDT Latitude Longitude Course Direction KTS MPH feet Rate Location/Type
09:28AM 40.6524 29.3980 126° Southeast  Level Estimated
09:29AM 40.5871 29.5127 127° Southeast  Level Estimated
09:30AM 40.5218 29.6272 127° Southeast  Level Estimated
09:31AM 40.4563 29.7414 127° Southeast  Level Estimated
09:32AM 40.3907 29.8554 127° Southeast  Level Estimated
09:33AM 40.3250 29.9693 127° Southeast  Level Estimated
09:34AM 40.2592 30.0828 127° Southeast  Level Estimated
09:35AM 40.1932 30.1962 127° Southeast  Level Estimated
09:36AM 40.1272 30.3094 127° Southeast  Level Estimated
09:37AM 40.0611 30.4223 127° Southeast  Level Estimated
09:38AM 39.9948 30.5350 127° Southeast  Level Estimated
09:39AM 39.9285 30.6475 128° Southeast  Level Estimated
09:40AM 39.8620 30.7598 128° Southeast  Level Estimated
09:41AM 39.7954 30.8718 128° Southeast  Level Estimated
09:42AM 39.7287 30.9837 128° Southeast  Level Estimated
09:43AM 39.6619 31.0953 128° Southeast  Level Estimated
09:44AM 39.5951 31.2067 128° Southeast  Level Estimated
09:45AM 39.5280 31.3179 128° Southeast  Level Estimated
09:46AM 39.4609 31.4288 128° Southeast  Level Estimated
09:47AM 39.3937 31.5396 128° Southeast  Level Estimated
09:48AM 39.3264 31.6502 128° Southeast  Level Estimated
09:49AM 39.2590 31.7605 128° Southeast  Level Estimated
09:50AM 39.1914 31.8706 128° Southeast  Level Estimated
09:51AM 39.1238 31.9805 128° Southeast  Level Estimated
09:52AM 39.0561 32.0902 128° Southeast  Level Estimated
09:53AM 38.9883 32.1997 129° Southeast  Level Estimated
09:54AM 38.9203 32.3090 129° Southeast  Level Estimated
09:55AM 38.8523 32.4180 129° Southeast  Level Estimated
09:56AM 38.7841 32.5269 129° Southeast  Level Estimated
09:57AM 38.7159 32.6356 129° Southeast  Level Estimated
09:58AM 38.6475 32.7440 129° Southeast  Level Estimated
09:59AM 38.5791 32.8522 129° Southeast  Level Estimated
10:00AM 38.5106 32.9603 129° Southeast  Level Estimated
10:01AM 38.4419 33.0681 129° Southeast  Level Estimated
10:02AM 38.3732 33.1757 129° Southeast  Level Estimated
10:03AM 38.3044 33.2831 129° Southeast  Level Estimated
10:04AM 38.2354 33.3904 129° Southeast  Level Estimated
10:05AM 38.1664 33.4974 129° Southeast  Level Estimated
10:06AM 38.0973 33.6042 129° Southeast  Level Estimated
10:07AM 38.0280 33.7108 129° Southeast  Level Estimated
10:08AM 37.9587 33.8172 130° Southeast  Level Estimated
10:09AM 37.8893 33.9234 130° Southeast  Level Estimated
10:10AM 37.8198 34.0294 130° Southeast  Level Estimated
10:11AM 37.7502 34.1352 130° Southeast  Level Estimated
10:12AM 37.6805 34.2408 130° Southeast  Level Estimated
10:13AM 37.6107 34.3462 130° Southeast  Level Estimated
10:14AM 37.5408 34.4514 130° Southeast  Level Estimated
10:15AM 37.4708 34.5564 130° Southeast  Level Estimated
10:16AM 37.4007 34.6612 130° Southeast  Level Estimated
10:17AM 37.3305 34.7659 130° Southeast  Level Estimated
10:18AM 37.2603 34.8703 130° Southeast  Level Estimated
10:19AM 37.1899 34.9745 130° Southeast  Level Estimated
10:20AM 37.1195 35.0785 130° Southeast  Level Estimated
10:21AM 37.0490 35.1824 130° Southeast  Level Estimated
10:22AM 36.9822 35.2804 130° Southeast  Level Estimated
10:23AM 36.9822 35.2804 202° Southwest  Level Estimated
10:24AM 36.9822 35.2804 202° Southwest  Level Estimated
10:25AM 36.9822 35.2804 202° Southwest  Level Estimated
10:26AM 36.9822 35.2804 202° Southwest  Level Estimated
10:27AM 36.9822 35.2804 202° Southwest  Level Estimated
10:28AM 36.9822 35.2804 202° Southwest  Level Estimated
10:29AM 36.9822 35.2804 202° Southwest  Level Estimated
10:30AM 36.9822 35.2804 202° Southwest  Level Estimated
10:31AM 36.9822 35.2804 202° Southwest  Level Estimated
10:32AM 36.9822 35.2804 202° Southwest  Level Estimated
10:33AM 36.9822 35.2804 202° Southwest  Level Estimated
10:34AM 36.9822 35.2804 202° Southwest  Level Estimated
10:35AM 36.9822 35.2804 202° Southwest  Level Estimated
10:36AM 36.9822 35.2804 202° Southwest  Level Estimated
10:37AM 36.9822 35.2804 202° Southwest  Level Estimated
10:38AM 36.9822 35.2804 202° Southwest  Level Estimated